sensor_id;sensor_type;location;lat;lon;timestamp;P1;durP1;ratioP1;P2;durP2;ratioP2
72882;SDS011;61017;37.812;-122.286;2023-07-13T00:01:11;7.30;;;3.20;;
72882;SDS011;61017;37.812;-122.286;2023-07-13T00:02:43;6.55;;;3.25;;
72882;SDS011;61017;37.812;-122.286;2023-07-13T00:04:18;6.85;;;3.30;;
72882;SDS011;61017;37.812;-122.286;2023-07-13T00:05:59;7.80;;;2.83;;
72882;SDS011;61017;37.812;-122.286;2023-07-13T00:07:31;8.45;;;3.38;;
72882;SDS011;61017;37.812;-122.286;2023-07-13T00:09:03;7.07;;;3.20;;
72882;SDS011;61017;37.812;-122.286;2023-07-13T00:10:38;6.88;;;3.20;;
72882;SDS011;61017;37.812;-122.286;2023-07-13T00:12:31;8.63;;;3.80;;
72882;SDS011;61017;37.812;-122.286;2023-07-13T00:14:04;6.93;;;3.30;;
72882;SDS011;61017;37.812;-122.286;2023-07-13T00:15:35;6.68;;;3.10;;
72882;SDS011;61017;37.812;-122.286;2023-07-13T00:17:07;6.47;;;3.05;;
72882;SDS011;61017;37.812;-122.286;2023-07-13T00:18:39;7.03;;;3.35;;
72882;SDS011;61017;37.812;-122.286;2023-07-13T00:20:10;9.10;;;3.35;;
72882;SDS011;61017;37.812;-122.286;2023-07-13T00:21:42;7.45;;;3.50;;
72882;SDS011;61017;37.812;-122.286;2023-07-13T00:23:14;6.95;;;3.70;;
72882;SDS011;61017;37.812;-122.286;2023-07-13T00:24:46;7.13;;;3.58;;
72882;SDS011;61017;37.812;-122.286;2023-07-13T00:26:17;6.78;;;3.33;;
72882;SDS011;61017;37.812;-122.286;2023-07-13T00:27:49;8.50;;;3.60;;
72882;SDS011;61017;37.812;-122.286;2023-07-13T00:29:21;8.05;;;3.47;;
72882;SDS011;61017;37.812;-122.286;2023-07-13T00:30:53;7.13;;;3.30;;
72882;SDS011;61017;37.812;-122.286;2023-07-13T00:32:24;7.25;;;3.42;;
72882;SDS011;61017;37.812;-122.286;2023-07-13T00:33:56;7.63;;;3.40;;
72882;SDS011;61017;37.812;-122.286;2023-07-13T00:35:30;9.68;;;3.50;;
72882;SDS011;61017;37.812;-122.286;2023-07-13T00:37:01;6.45;;;3.20;;
72882;SDS011;61017;37.812;-122.286;2023-07-13T00:38:40;8.48;;;3.78;;
72882;SDS011;61017;37.812;-122.286;2023-07-13T00:40:13;6.47;;;3.45;;
72882;SDS011;61017;37.812;-122.286;2023-07-13T00:41:49;8.02;;;3.47;;
72882;SDS011;61017;37.812;-122.286;2023-07-13T00:43:21;8.05;;;3.60;;
72882;SDS011;61017;37.812;-122.286;2023-07-13T00:45:01;6.07;;;3.25;;
72882;SDS011;61017;37.812;-122.286;2023-07-13T00:46:34;8.02;;;3.90;;
72882;SDS011;61017;37.812;-122.286;2023-07-13T00:48:06;7.88;;;3.92;;
72882;SDS011;61017;37.812;-122.286;2023-07-13T00:49:37;7.75;;;4.00;;
72882;SDS011;61017;37.812;-122.286;2023-07-13T00:51:09;7.90;;;3.70;;
72882;SDS011;61017;37.812;-122.286;2023-07-13T00:52:43;7.43;;;3.97;;
72882;SDS011;61017;37.812;-122.286;2023-07-13T00:54:20;8.40;;;3.72;;
72882;SDS011;61017;37.812;-122.286;2023-07-13T00:55:55;8.32;;;3.55;;
72882;SDS011;61017;37.812;-122.286;2023-07-13T00:57:29;6.97;;;3.92;;
72882;SDS011;61017;37.812;-122.286;2023-07-13T00:59:02;8.60;;;3.80;;
72882;SDS011;61017;37.812;-122.286;2023-07-13T01:00:36;7.90;;;4.00;;
72882;SDS011;61017;37.812;-122.286;2023-07-13T01:02:09;8.52;;;3.75;;
72882;SDS011;61017;37.812;-122.286;2023-07-13T01:03:42;8.13;;;3.65;;
72882;SDS011;61017;37.812;-122.286;2023-07-13T01:05:15;8.10;;;3.85;;
72882;SDS011;61017;37.812;-122.286;2023-07-13T01:06:48;7.05;;;3.80;;
72882;SDS011;61017;37.812;-122.286;2023-07-13T01:08:20;9.65;;;3.72;;
72882;SDS011;61017;37.812;-122.286;2023-07-13T01:11:23;8.27;;;4.03;;
72882;SDS011;61017;37.812;-122.286;2023-07-13T01:12:56;7.68;;;3.65;;
72882;SDS011;61017;37.812;-122.286;2023-07-13T01:14:27;10.32;;;4.20;;
72882;SDS011;61017;37.812;-122.286;2023-07-13T01:16:01;8.18;;;4.13;;
72882;SDS011;61017;37.812;-122.286;2023-07-13T01:17:37;8.80;;;3.80;;
72882;SDS011;61017;37.812;-122.286;2023-07-13T01:19:54;8.48;;;3.90;;
72882;SDS011;61017;37.812;-122.286;2023-07-13T01:21:11;8.35;;;3.90;;
72882;SDS011;61017;37.812;-122.286;2023-07-13T01:22:42;10.10;;;3.90;;
72882;SDS011;61017;37.812;-122.286;2023-07-13T01:24:14;10.90;;;4.03;;
72882;SDS011;61017;37.812;-122.286;2023-07-13T01:25:46;9.77;;;4.00;;
72882;SDS011;61017;37.812;-122.286;2023-07-13T01:27:21;8.05;;;4.18;;
72882;SDS011;61017;37.812;-122.286;2023-07-13T01:28:54;10.23;;;3.83;;
72882;SDS011;61017;37.812;-122.286;2023-07-13T01:30:27;7.47;;;3.67;;
72882;SDS011;61017;37.812;-122.286;2023-07-13T01:31:59;8.55;;;3.90;;
72882;SDS011;61017;37.812;-122.286;2023-07-13T01:33:31;8.70;;;4.28;;
72882;SDS011;61017;37.812;-122.286;2023-07-13T01:35:16;9.30;;;3.90;;
72882;SDS011;61017;37.812;-122.286;2023-07-13T01:36:48;9.38;;;4.15;;
72882;SDS011;61017;37.812;-122.286;2023-07-13T01:38:21;10.32;;;4.30;;
72882;SDS011;61017;37.812;-122.286;2023-07-13T01:39:53;12.23;;;4.00;;
72882;SDS011;61017;37.812;-122.286;2023-07-13T01:41:25;10.32;;;4.30;;
72882;SDS011;61017;37.812;-122.286;2023-07-13T01:42:58;9.50;;;3.85;;
72882;SDS011;61017;37.812;-122.286;2023-07-13T01:44:29;8.27;;;3.78;;
72882;SDS011;61017;37.812;-122.286;2023-07-13T01:46:01;8.93;;;4.38;;
72882;SDS011;61017;37.812;-122.286;2023-07-13T01:47:32;8.45;;;4.00;;
72882;SDS011;61017;37.812;-122.286;2023-07-13T01:49:04;8.27;;;4.15;;
72882;SDS011;61017;37.812;-122.286;2023-07-13T01:50:36;9.35;;;3.92;;
72882;SDS011;61017;37.812;-122.286;2023-07-13T01:52:08;8.45;;;3.85;;
72882;SDS011;61017;37.812;-122.286;2023-07-13T01:53:39;10.10;;;4.40;;
72882;SDS011;61017;37.812;-122.286;2023-07-13T01:55:11;8.95;;;3.88;;
72882;SDS011;61017;37.812;-122.286;2023-07-13T01:56:42;8.63;;;3.92;;
72882;SDS011;61017;37.812;-122.286;2023-07-13T01:58:14;8.98;;;4.38;;
72882;SDS011;61017;37.812;-122.286;2023-07-13T01:59:45;8.57;;;3.92;;
72882;SDS011;61017;37.812;-122.286;2023-07-13T02:01:17;11.07;;;4.32;;
72882;SDS011;61017;37.812;-122.286;2023-07-13T02:02:48;9.23;;;4.07;;
72882;SDS011;61017;37.812;-122.286;2023-07-13T02:04:20;9.10;;;4.13;;
72882;SDS011;61017;37.812;-122.286;2023-07-13T02:05:52;10.88;;;4.55;;
72882;SDS011;61017;37.812;-122.286;2023-07-13T02:07:23;8.15;;;3.90;;
72882;SDS011;61017;37.812;-122.286;2023-07-13T02:08:55;10.13;;;4.32;;
72882;SDS011;61017;37.812;-122.286;2023-07-13T02:10:26;8.30;;;4.40;;
72882;SDS011;61017;37.812;-122.286;2023-07-13T02:11:58;9.63;;;4.60;;
72882;SDS011;61017;37.812;-122.286;2023-07-13T02:13:30;7.90;;;4.05;;
72882;SDS011;61017;37.812;-122.286;2023-07-13T02:15:01;9.07;;;4.30;;
72882;SDS011;61017;37.812;-122.286;2023-07-13T02:16:34;8.32;;;3.70;;
72882;SDS011;61017;37.812;-122.286;2023-07-13T02:18:05;8.50;;;4.07;;
72882;SDS011;61017;37.812;-122.286;2023-07-13T02:19:37;9.25;;;4.00;;
72882;SDS011;61017;37.812;-122.286;2023-07-13T02:21:13;8.82;;;4.30;;
72882;SDS011;61017;37.812;-122.286;2023-07-13T02:22:45;9.57;;;4.10;;
72882;SDS011;61017;37.812;-122.286;2023-07-13T02:24:16;10.50;;;4.18;;
72882;SDS011;61017;37.812;-122.286;2023-07-13T02:25:48;9.88;;;4.03;;
72882;SDS011;61017;37.812;-122.286;2023-07-13T02:27:20;10.88;;;4.15;;
72882;SDS011;61017;37.812;-122.286;2023-07-13T02:28:51;11.77;;;4.32;;
72882;SDS011;61017;37.812;-122.286;2023-07-13T02:30:23;7.65;;;4.30;;
72882;SDS011;61017;37.812;-122.286;2023-07-13T02:31:54;12.23;;;4.88;;
72882;SDS011;61017;37.812;-122.286;2023-07-13T02:33:26;9.68;;;4.03;;
72882;SDS011;61017;37.812;-122.286;2023-07-13T02:34:58;9.90;;;4.40;;
72882;SDS011;61017;37.812;-122.286;2023-07-13T02:36:30;10.07;;;4.50;;
72882;SDS011;61017;37.812;-122.286;2023-07-13T02:38:02;10.98;;;4.50;;
72882;SDS011;61017;37.812;-122.286;2023-07-13T02:39:34;9.45;;;4.20;;
72882;SDS011;61017;37.812;-122.286;2023-07-13T02:41:06;9.10;;;4.40;;
72882;SDS011;61017;37.812;-122.286;2023-07-13T02:44:12;10.60;;;4.32;;
72882;SDS011;61017;37.812;-122.286;2023-07-13T02:45:44;10.35;;;4.50;;
72882;SDS011;61017;37.812;-122.286;2023-07-13T02:47:17;12.57;;;4.55;;
72882;SDS011;61017;37.812;-122.286;2023-07-13T02:48:48;10.90;;;4.32;;
72882;SDS011;61017;37.812;-122.286;2023-07-13T02:50:20;11.85;;;4.38;;
72882;SDS011;61017;37.812;-122.286;2023-07-13T02:51:52;10.63;;;4.47;;
72882;SDS011;61017;37.812;-122.286;2023-07-13T02:53:23;8.68;;;4.28;;
72882;SDS011;61017;37.812;-122.286;2023-07-13T02:54:55;7.53;;;4.13;;
72882;SDS011;61017;37.812;-122.286;2023-07-13T02:56:27;8.50;;;4.20;;
72882;SDS011;61017;37.812;-122.286;2023-07-13T02:58:00;7.65;;;3.67;;
72882;SDS011;61017;37.812;-122.286;2023-07-13T02:59:31;10.98;;;4.60;;
72882;SDS011;61017;37.812;-122.286;2023-07-13T03:01:05;7.43;;;4.35;;
72882;SDS011;61017;37.812;-122.286;2023-07-13T03:02:41;11.52;;;4.57;;
72882;SDS011;61017;37.812;-122.286;2023-07-13T03:04:13;8.88;;;3.95;;
72882;SDS011;61017;37.812;-122.286;2023-07-13T03:05:45;9.32;;;4.10;;
72882;SDS011;61017;37.812;-122.286;2023-07-13T03:07:16;11.50;;;4.70;;
72882;SDS011;61017;37.812;-122.286;2023-07-13T03:08:48;9.85;;;4.25;;
72882;SDS011;61017;37.812;-122.286;2023-07-13T03:10:19;10.23;;;4.50;;
72882;SDS011;61017;37.812;-122.286;2023-07-13T03:11:54;8.15;;;4.22;;
72882;SDS011;61017;37.812;-122.286;2023-07-13T03:13:26;8.23;;;4.00;;
72882;SDS011;61017;37.812;-122.286;2023-07-13T03:14:57;10.20;;;4.13;;
72882;SDS011;61017;37.812;-122.286;2023-07-13T03:16:29;10.68;;;4.30;;
72882;SDS011;61017;37.812;-122.286;2023-07-13T03:18:00;8.93;;;4.32;;
72882;SDS011;61017;37.812;-122.286;2023-07-13T03:19:32;9.35;;;4.28;;
72882;SDS011;61017;37.812;-122.286;2023-07-13T03:21:04;8.05;;;4.10;;
72882;SDS011;61017;37.812;-122.286;2023-07-13T03:22:36;10.27;;;4.47;;
72882;SDS011;61017;37.812;-122.286;2023-07-13T03:24:08;10.00;;;4.10;;
72882;SDS011;61017;37.812;-122.286;2023-07-13T03:25:40;8.05;;;4.28;;
72882;SDS011;61017;37.812;-122.286;2023-07-13T03:27:11;9.73;;;4.10;;
72882;SDS011;61017;37.812;-122.286;2023-07-13T03:28:43;10.38;;;3.85;;
72882;SDS011;61017;37.812;-122.286;2023-07-13T03:30:15;8.10;;;4.20;;
72882;SDS011;61017;37.812;-122.286;2023-07-13T03:31:47;8.02;;;4.18;;
72882;SDS011;61017;37.812;-122.286;2023-07-13T03:33:18;9.93;;;4.20;;
72882;SDS011;61017;37.812;-122.286;2023-07-13T03:34:50;9.38;;;4.20;;
72882;SDS011;61017;37.812;-122.286;2023-07-13T03:36:23;10.07;;;4.60;;
72882;SDS011;61017;37.812;-122.286;2023-07-13T03:37:57;9.23;;;4.13;;
72882;SDS011;61017;37.812;-122.286;2023-07-13T03:39:29;9.65;;;4.00;;
72882;SDS011;61017;37.812;-122.286;2023-07-13T03:41:00;9.23;;;4.10;;
72882;SDS011;61017;37.812;-122.286;2023-07-13T03:42:35;6.93;;;3.75;;
72882;SDS011;61017;37.812;-122.286;2023-07-13T03:44:09;7.13;;;3.78;;
72882;SDS011;61017;37.812;-122.286;2023-07-13T03:45:40;9.80;;;3.92;;
72882;SDS011;61017;37.812;-122.286;2023-07-13T03:47:12;9.23;;;4.30;;
72882;SDS011;61017;37.812;-122.286;2023-07-13T03:48:47;8.80;;;4.10;;
72882;SDS011;61017;37.812;-122.286;2023-07-13T03:50:19;7.95;;;4.22;;
72882;SDS011;61017;37.812;-122.286;2023-07-13T03:51:51;8.77;;;3.80;;
72882;SDS011;61017;37.812;-122.286;2023-07-13T03:53:22;8.93;;;3.97;;
72882;SDS011;61017;37.812;-122.286;2023-07-13T03:54:54;9.40;;;4.45;;
72882;SDS011;61017;37.812;-122.286;2023-07-13T03:56:29;10.82;;;4.40;;
72882;SDS011;61017;37.812;-122.286;2023-07-13T04:00:05;8.98;;;3.92;;
72882;SDS011;61017;37.812;-122.286;2023-07-13T04:01:39;8.85;;;3.95;;
72882;SDS011;61017;37.812;-122.286;2023-07-13T04:03:11;7.43;;;3.97;;
72882;SDS011;61017;37.812;-122.286;2023-07-13T04:04:54;8.57;;;4.20;;
72882;SDS011;61017;37.812;-122.286;2023-07-13T04:06:29;9.15;;;4.32;;
72882;SDS011;61017;37.812;-122.286;2023-07-13T04:08:00;9.85;;;4.28;;
72882;SDS011;61017;37.812;-122.286;2023-07-13T04:09:32;7.80;;;4.40;;
72882;SDS011;61017;37.812;-122.286;2023-07-13T04:11:07;7.07;;;3.92;;
72882;SDS011;61017;37.812;-122.286;2023-07-13T04:12:38;7.60;;;3.95;;
72882;SDS011;61017;37.812;-122.286;2023-07-13T04:14:10;6.05;;;3.50;;
72882;SDS011;61017;37.812;-122.286;2023-07-13T04:15:42;7.10;;;3.65;;
72882;SDS011;61017;37.812;-122.286;2023-07-13T04:17:13;6.75;;;3.83;;
72882;SDS011;61017;37.812;-122.286;2023-07-13T04:18:45;6.10;;;3.70;;
72882;SDS011;61017;37.812;-122.286;2023-07-13T04:20:17;7.90;;;3.70;;
72882;SDS011;61017;37.812;-122.286;2023-07-13T04:21:49;7.45;;;3.83;;
72882;SDS011;61017;37.812;-122.286;2023-07-13T04:23:21;7.43;;;3.42;;
72882;SDS011;61017;37.812;-122.286;2023-07-13T04:24:52;7.68;;;3.63;;
72882;SDS011;61017;37.812;-122.286;2023-07-13T04:26:24;8.57;;;3.90;;
72882;SDS011;61017;37.812;-122.286;2023-07-13T04:27:55;8.43;;;3.83;;
72882;SDS011;61017;37.812;-122.286;2023-07-13T04:29:27;7.57;;;4.00;;
72882;SDS011;61017;37.812;-122.286;2023-07-13T04:30:59;7.03;;;3.58;;
72882;SDS011;61017;37.812;-122.286;2023-07-13T04:32:30;8.85;;;4.00;;
72882;SDS011;61017;37.812;-122.286;2023-07-13T04:34:03;5.57;;;3.15;;
72882;SDS011;61017;37.812;-122.286;2023-07-13T04:35:34;7.00;;;3.70;;
72882;SDS011;61017;37.812;-122.286;2023-07-13T04:37:06;7.22;;;3.85;;
72882;SDS011;61017;37.812;-122.286;2023-07-13T04:38:38;9.20;;;3.92;;
72882;SDS011;61017;37.812;-122.286;2023-07-13T04:40:12;8.15;;;3.80;;
72882;SDS011;61017;37.812;-122.286;2023-07-13T04:41:44;7.75;;;3.70;;
72882;SDS011;61017;37.812;-122.286;2023-07-13T04:43:16;8.05;;;4.00;;
72882;SDS011;61017;37.812;-122.286;2023-07-13T04:44:48;8.20;;;3.80;;
72882;SDS011;61017;37.812;-122.286;2023-07-13T04:46:21;6.85;;;3.60;;
72882;SDS011;61017;37.812;-122.286;2023-07-13T04:47:52;6.20;;;3.50;;
72882;SDS011;61017;37.812;-122.286;2023-07-13T04:49:24;7.03;;;4.10;;
72882;SDS011;61017;37.812;-122.286;2023-07-13T04:50:56;7.28;;;3.90;;
72882;SDS011;61017;37.812;-122.286;2023-07-13T04:52:29;7.18;;;3.70;;
72882;SDS011;61017;37.812;-122.286;2023-07-13T04:54:00;8.40;;;3.60;;
72882;SDS011;61017;37.812;-122.286;2023-07-13T04:55:33;8.80;;;3.72;;
72882;SDS011;61017;37.812;-122.286;2023-07-13T04:57:05;7.30;;;3.63;;
72882;SDS011;61017;37.812;-122.286;2023-07-13T04:58:37;6.07;;;3.50;;
72882;SDS011;61017;37.812;-122.286;2023-07-13T05:00:08;6.63;;;3.25;;
72882;SDS011;61017;37.812;-122.286;2023-07-13T05:01:40;6.50;;;3.78;;
72882;SDS011;61017;37.812;-122.286;2023-07-13T05:03:12;5.10;;;3.42;;
72882;SDS011;61017;37.812;-122.286;2023-07-13T05:04:46;5.65;;;3.05;;
72882;SDS011;61017;37.812;-122.286;2023-07-13T05:06:18;6.82;;;3.50;;
72882;SDS011;61017;37.812;-122.286;2023-07-13T05:07:49;10.02;;;4.03;;
72882;SDS011;61017;37.812;-122.286;2023-07-13T05:09:21;7.25;;;3.80;;
72882;SDS011;61017;37.812;-122.286;2023-07-13T05:10:52;6.45;;;3.53;;
72882;SDS011;61017;37.812;-122.286;2023-07-13T05:12:24;6.38;;;3.50;;
72882;SDS011;61017;37.812;-122.286;2023-07-13T05:13:56;7.03;;;3.90;;
72882;SDS011;61017;37.812;-122.286;2023-07-13T05:15:28;7.85;;;3.50;;
72882;SDS011;61017;37.812;-122.286;2023-07-13T05:17:05;5.95;;;3.45;;
72882;SDS011;61017;37.812;-122.286;2023-07-13T05:18:37;6.30;;;3.65;;
72882;SDS011;61017;37.812;-122.286;2023-07-13T05:20:09;8.13;;;3.85;;
72882;SDS011;61017;37.812;-122.286;2023-07-13T05:21:40;6.05;;;3.45;;
72882;SDS011;61017;37.812;-122.286;2023-07-13T05:23:12;6.55;;;3.38;;
72882;SDS011;61017;37.812;-122.286;2023-07-13T05:24:43;6.03;;;3.45;;
72882;SDS011;61017;37.812;-122.286;2023-07-13T05:26:18;5.90;;;3.38;;
72882;SDS011;61017;37.812;-122.286;2023-07-13T05:27:54;6.40;;;3.85;;
72882;SDS011;61017;37.812;-122.286;2023-07-13T05:29:26;8.20;;;3.58;;
72882;SDS011;61017;37.812;-122.286;2023-07-13T05:30:57;7.43;;;3.92;;
72882;SDS011;61017;37.812;-122.286;2023-07-13T05:32:29;7.28;;;3.53;;
72882;SDS011;61017;37.812;-122.286;2023-07-13T05:34:01;6.63;;;3.60;;
72882;SDS011;61017;37.812;-122.286;2023-07-13T05:35:32;6.88;;;3.47;;
72882;SDS011;61017;37.812;-122.286;2023-07-13T05:37:04;7.20;;;3.67;;
72882;SDS011;61017;37.812;-122.286;2023-07-13T05:38:36;8.13;;;3.70;;
72882;SDS011;61017;37.812;-122.286;2023-07-13T05:40:07;6.10;;;3.50;;
72882;SDS011;61017;37.812;-122.286;2023-07-13T05:41:39;7.97;;;3.65;;
72882;SDS011;61017;37.812;-122.286;2023-07-13T05:43:14;7.47;;;3.60;;
72882;SDS011;61017;37.812;-122.286;2023-07-13T05:44:45;7.60;;;3.40;;
72882;SDS011;61017;37.812;-122.286;2023-07-13T05:46:17;6.70;;;3.70;;
72882;SDS011;61017;37.812;-122.286;2023-07-13T05:47:48;6.68;;;3.80;;
72882;SDS011;61017;37.812;-122.286;2023-07-13T05:49:20;8.02;;;3.88;;
72882;SDS011;61017;37.812;-122.286;2023-07-13T05:50:51;8.50;;;3.65;;
72882;SDS011;61017;37.812;-122.286;2023-07-13T05:52:23;6.40;;;3.30;;
72882;SDS011;61017;37.812;-122.286;2023-07-13T05:53:55;8.35;;;3.53;;
72882;SDS011;61017;37.812;-122.286;2023-07-13T05:55:27;7.05;;;3.78;;
72882;SDS011;61017;37.812;-122.286;2023-07-13T05:56:58;7.10;;;3.28;;
72882;SDS011;61017;37.812;-122.286;2023-07-13T05:58:33;6.65;;;3.65;;
72882;SDS011;61017;37.812;-122.286;2023-07-13T06:00:05;6.90;;;3.22;;
72882;SDS011;61017;37.812;-122.286;2023-07-13T06:01:37;7.45;;;3.70;;
72882;SDS011;61017;37.812;-122.286;2023-07-13T06:03:09;6.13;;;3.65;;
72882;SDS011;61017;37.812;-122.286;2023-07-13T06:04:40;5.95;;;3.28;;
72882;SDS011;61017;37.812;-122.286;2023-07-13T06:06:12;7.55;;;3.47;;
72882;SDS011;61017;37.812;-122.286;2023-07-13T06:07:44;6.82;;;3.30;;
72882;SDS011;61017;37.812;-122.286;2023-07-13T06:09:16;7.28;;;3.30;;
72882;SDS011;61017;37.812;-122.286;2023-07-13T06:10:47;5.93;;;3.28;;
72882;SDS011;61017;37.812;-122.286;2023-07-13T06:12:19;5.85;;;3.20;;
72882;SDS011;61017;37.812;-122.286;2023-07-13T06:13:51;6.88;;;3.30;;
72882;SDS011;61017;37.812;-122.286;2023-07-13T06:15:22;7.37;;;3.30;;
72882;SDS011;61017;37.812;-122.286;2023-07-13T06:16:54;7.53;;;3.15;;
72882;SDS011;61017;37.812;-122.286;2023-07-13T06:18:25;7.30;;;3.50;;
72882;SDS011;61017;37.812;-122.286;2023-07-13T06:19:57;6.07;;;3.22;;
72882;SDS011;61017;37.812;-122.286;2023-07-13T06:21:28;7.28;;;3.70;;
72882;SDS011;61017;37.812;-122.286;2023-07-13T06:23:01;8.30;;;3.58;;
72882;SDS011;61017;37.812;-122.286;2023-07-13T06:24:35;7.05;;;3.17;;
72882;SDS011;61017;37.812;-122.286;2023-07-13T06:26:09;7.10;;;3.35;;
72882;SDS011;61017;37.812;-122.286;2023-07-13T06:27:41;6.95;;;3.15;;
72882;SDS011;61017;37.812;-122.286;2023-07-13T06:29:13;6.88;;;3.40;;
72882;SDS011;61017;37.812;-122.286;2023-07-13T06:30:44;7.63;;;3.63;;
72882;SDS011;61017;37.812;-122.286;2023-07-13T06:32:19;8.15;;;3.50;;
72882;SDS011;61017;37.812;-122.286;2023-07-13T06:33:50;7.75;;;3.60;;
72882;SDS011;61017;37.812;-122.286;2023-07-13T06:35:22;8.32;;;3.30;;
72882;SDS011;61017;37.812;-122.286;2023-07-13T06:36:53;7.38;;;3.38;;
72882;SDS011;61017;37.812;-122.286;2023-07-13T06:38:25;7.65;;;3.22;;
72882;SDS011;61017;37.812;-122.286;2023-07-13T06:39:56;7.00;;;3.22;;
72882;SDS011;61017;37.812;-122.286;2023-07-13T06:41:31;6.47;;;3.30;;
72882;SDS011;61017;37.812;-122.286;2023-07-13T06:44:54;9.18;;;3.60;;
72882;SDS011;61017;37.812;-122.286;2023-07-13T06:46:26;7.13;;;3.22;;
72882;SDS011;61017;37.812;-122.286;2023-07-13T06:47:59;8.10;;;3.45;;
72882;SDS011;61017;37.812;-122.286;2023-07-13T06:49:34;5.80;;;3.13;;
72882;SDS011;61017;37.812;-122.286;2023-07-13T06:51:05;6.40;;;3.13;;
72882;SDS011;61017;37.812;-122.286;2023-07-13T06:52:37;8.35;;;3.40;;
72882;SDS011;61017;37.812;-122.286;2023-07-13T06:54:09;6.55;;;3.38;;
72882;SDS011;61017;37.812;-122.286;2023-07-13T06:55:43;6.45;;;3.08;;
72882;SDS011;61017;37.812;-122.286;2023-07-13T06:57:15;9.18;;;3.28;;
72882;SDS011;61017;37.812;-122.286;2023-07-13T06:58:47;6.75;;;3.30;;
72882;SDS011;61017;37.812;-122.286;2023-07-13T07:00:21;7.85;;;3.20;;
72882;SDS011;61017;37.812;-122.286;2023-07-13T07:01:53;7.45;;;3.40;;
72882;SDS011;61017;37.812;-122.286;2023-07-13T07:03:25;7.82;;;3.53;;
72882;SDS011;61017;37.812;-122.286;2023-07-13T07:04:56;8.38;;;3.55;;
72882;SDS011;61017;37.812;-122.286;2023-07-13T07:06:28;7.18;;;3.05;;
72882;SDS011;61017;37.812;-122.286;2023-07-13T07:07:59;6.63;;;3.33;;
72882;SDS011;61017;37.812;-122.286;2023-07-13T07:09:31;9.25;;;3.63;;
72882;SDS011;61017;37.812;-122.286;2023-07-13T07:11:03;9.07;;;3.47;;
72882;SDS011;61017;37.812;-122.286;2023-07-13T07:12:34;6.25;;;3.10;;
72882;SDS011;61017;37.812;-122.286;2023-07-13T07:14:07;9.35;;;3.38;;
72882;SDS011;61017;37.812;-122.286;2023-07-13T07:15:38;6.15;;;3.15;;
72882;SDS011;61017;37.812;-122.286;2023-07-13T07:17:10;10.77;;;3.40;;
72882;SDS011;61017;37.812;-122.286;2023-07-13T07:18:44;9.52;;;3.38;;
72882;SDS011;61017;37.812;-122.286;2023-07-13T07:20:19;7.70;;;3.13;;
72882;SDS011;61017;37.812;-122.286;2023-07-13T07:21:50;6.55;;;3.38;;
72882;SDS011;61017;37.812;-122.286;2023-07-13T07:23:22;7.82;;;3.30;;
72882;SDS011;61017;37.812;-122.286;2023-07-13T07:24:54;7.50;;;3.28;;
72882;SDS011;61017;37.812;-122.286;2023-07-13T07:26:28;8.45;;;3.25;;
72882;SDS011;61017;37.812;-122.286;2023-07-13T07:28:00;6.97;;;3.25;;
72882;SDS011;61017;37.812;-122.286;2023-07-13T07:29:31;8.10;;;2.95;;
72882;SDS011;61017;37.812;-122.286;2023-07-13T07:31:03;7.63;;;3.00;;
72882;SDS011;61017;37.812;-122.286;2023-07-13T07:32:35;6.88;;;2.92;;
72882;SDS011;61017;37.812;-122.286;2023-07-13T07:34:06;7.80;;;3.13;;
72882;SDS011;61017;37.812;-122.286;2023-07-13T07:35:44;7.00;;;3.13;;
72882;SDS011;61017;37.812;-122.286;2023-07-13T07:37:18;7.53;;;3.17;;
72882;SDS011;61017;37.812;-122.286;2023-07-13T07:38:50;7.32;;;3.08;;
72882;SDS011;61017;37.812;-122.286;2023-07-13T07:40:21;8.10;;;3.40;;
72882;SDS011;61017;37.812;-122.286;2023-07-13T07:41:53;7.20;;;3.10;;
72882;SDS011;61017;37.812;-122.286;2023-07-13T07:43:25;6.18;;;2.55;;
72882;SDS011;61017;37.812;-122.286;2023-07-13T07:44:56;7.95;;;3.00;;
72882;SDS011;61017;37.812;-122.286;2023-07-13T07:46:28;7.15;;;2.90;;
72882;SDS011;61017;37.812;-122.286;2023-07-13T07:48:00;6.30;;;3.15;;
72882;SDS011;61017;37.812;-122.286;2023-07-13T07:49:31;8.43;;;3.25;;
72882;SDS011;61017;37.812;-122.286;2023-07-13T07:51:03;6.80;;;2.83;;
72882;SDS011;61017;37.812;-122.286;2023-07-13T07:52:35;6.93;;;2.92;;
72882;SDS011;61017;37.812;-122.286;2023-07-13T07:54:07;6.60;;;2.97;;
72882;SDS011;61017;37.812;-122.286;2023-07-13T07:55:39;7.05;;;2.70;;
72882;SDS011;61017;37.812;-122.286;2023-07-13T07:57:10;7.78;;;3.00;;
72882;SDS011;61017;37.812;-122.286;2023-07-13T07:58:42;8.27;;;3.05;;
72882;SDS011;61017;37.812;-122.286;2023-07-13T08:00:14;7.85;;;3.25;;
72882;SDS011;61017;37.812;-122.286;2023-07-13T08:01:46;8.70;;;3.22;;
72882;SDS011;61017;37.812;-122.286;2023-07-13T08:03:18;7.20;;;3.00;;
72882;SDS011;61017;37.812;-122.286;2023-07-13T08:04:53;7.03;;;2.97;;
72882;SDS011;61017;37.812;-122.286;2023-07-13T08:06:24;7.85;;;3.00;;
72882;SDS011;61017;37.812;-122.286;2023-07-13T08:07:56;7.25;;;3.35;;
72882;SDS011;61017;37.812;-122.286;2023-07-13T08:09:35;8.05;;;3.05;;
72882;SDS011;61017;37.812;-122.286;2023-07-13T08:11:07;8.48;;;2.67;;
72882;SDS011;61017;37.812;-122.286;2023-07-13T08:12:39;6.47;;;3.13;;
72882;SDS011;61017;37.812;-122.286;2023-07-13T08:14:11;7.15;;;3.00;;
72882;SDS011;61017;37.812;-122.286;2023-07-13T08:15:42;7.50;;;2.97;;
72882;SDS011;61017;37.812;-122.286;2023-07-13T08:17:14;7.35;;;3.03;;
72882;SDS011;61017;37.812;-122.286;2023-07-13T08:18:45;7.45;;;3.10;;
72882;SDS011;61017;37.812;-122.286;2023-07-13T08:20:20;7.28;;;2.67;;
72882;SDS011;61017;37.812;-122.286;2023-07-13T08:21:52;8.23;;;3.13;;
72882;SDS011;61017;37.812;-122.286;2023-07-13T08:23:23;10.40;;;2.95;;
72882;SDS011;61017;37.812;-122.286;2023-07-13T08:24:55;8.95;;;3.08;;
72882;SDS011;61017;37.812;-122.286;2023-07-13T08:26:33;8.77;;;3.35;;
72882;SDS011;61017;37.812;-122.286;2023-07-13T08:28:04;6.97;;;3.08;;
72882;SDS011;61017;37.812;-122.286;2023-07-13T08:29:36;8.60;;;2.90;;
72882;SDS011;61017;37.812;-122.286;2023-07-13T08:31:08;9.13;;;2.92;;
72882;SDS011;61017;37.812;-122.286;2023-07-13T08:32:40;6.82;;;2.70;;
72882;SDS011;61017;37.812;-122.286;2023-07-13T08:34:12;6.68;;;2.58;;
72882;SDS011;61017;37.812;-122.286;2023-07-13T08:35:47;8.07;;;2.70;;
72882;SDS011;61017;37.812;-122.286;2023-07-13T08:37:19;7.70;;;2.90;;
72882;SDS011;61017;37.812;-122.286;2023-07-13T08:38:50;7.25;;;2.88;;
72882;SDS011;61017;37.812;-122.286;2023-07-13T08:40:23;8.48;;;3.10;;
72882;SDS011;61017;37.812;-122.286;2023-07-13T08:41:58;5.50;;;2.50;;
72882;SDS011;61017;37.812;-122.286;2023-07-13T08:43:56;7.50;;;2.80;;
72882;SDS011;61017;37.812;-122.286;2023-07-13T08:45:30;7.93;;;2.53;;
72882;SDS011;61017;37.812;-122.286;2023-07-13T08:47:16;6.45;;;2.80;;
72882;SDS011;61017;37.812;-122.286;2023-07-13T08:50:28;6.35;;;2.58;;
72882;SDS011;61017;37.812;-122.286;2023-07-13T08:52:38;7.70;;;2.47;;
72882;SDS011;61017;37.812;-122.286;2023-07-13T08:54:26;6.90;;;2.90;;
72882;SDS011;61017;37.812;-122.286;2023-07-13T08:56:01;8.65;;;2.78;;
72882;SDS011;61017;37.812;-122.286;2023-07-13T08:59:13;8.35;;;2.90;;
72882;SDS011;61017;37.812;-122.286;2023-07-13T09:00:56;7.35;;;2.50;;
72882;SDS011;61017;37.812;-122.286;2023-07-13T09:02:42;7.38;;;2.65;;
72882;SDS011;61017;37.812;-122.286;2023-07-13T09:04:32;7.72;;;2.90;;
72882;SDS011;61017;37.812;-122.286;2023-07-13T09:06:12;8.25;;;2.67;;